aviador You're here:

KALW Decoded Metar

WALLA WALLA in WA, USA
Report Time2018-06-18 14:53:00
UTC Time2018-06-18 15:23:40
Flight Rules vfr VFR
Wind200° at 07 kt
W.Decomp.*RWY 20: 6.6 kt HW 2.4 kt LCW
RWY 16: 6.6 kt HW 2.4 kt RCW
RWY 25: 2.4 kt HW 6.6 kt LCW
W.Rank200° ranks 3
Current wind is below 200° avg. (9.1)
Visibility9999 m
Phenomena:N/A
Clouds:Overcast 075 Hf
Expected CloudBase > 2,400 ft AGL from Temp-Dew spread
Ceiling7,500 ft
Temp18°C (ISA +5)
Dew Point12°C (68% RH)
AAT16.1°C
QNH1013 hPa
Density Alt2,011 ft
Elevation1,191 ft
Report Wrong Elevation
Raw Report
KALW 181453Z 20007KT 10SM OVC075 18/12 A2990 RMK AO2 SLP119
T01830122 53016=

Extra information for KALW:More info

Metar Taf Metar & Taf Last 4 Metars F.Rules Stats Wind Profile Meteogram Temp Stats Airport Information Weather charts Add Link Nearby VenuesMetar ALERT Operation Metar Decoded Social comments

AIRNAV info for KALW